Time;durP1;ratioP1;P1;durP2;ratioP2;P2;SDS_P1;SDS_P2;PMS_P1;PMS_P2;Temp;Humidity;BMP_temperature;BMP_pressure;BME280_temperature;BME280_humidity;BME280_pressure;Samples;Min_cycle;Max_cycle;Signal;HPM_P1;HPM_P2
2023/10/22 00:02:21;;;;;;;2.60;2.40;;;10.30;99.90;;;;;;5012622;28;20276;-30
2023/10/22 00:04:47;;;;;;;3.23;2.40;;;10.20;99.90;;;;;;5013687;28;20266;-30
2023/10/22 00:07:16;;;;;;;3.23;2.73;;;10.20;99.90;;;;;;5029318;28;20183;-30
2023/10/22 00:09:42;;;;;;;3.43;2.37;;;10.10;99.90;;;;;;5029661;28;20188;-30
2023/10/22 00:12:08;;;;;;;3.07;2.70;;;10.10;99.90;;;;;;5013095;28;20183;-30
2023/10/22 00:14:34;;;;;;;5.47;2.07;;;10.10;99.90;;;;;;5029506;28;20274;-30
2023/10/22 00:17:00;;;;;;;2.13;1.73;;;10.10;99.90;;;;;;5029778;28;20276;-30
2023/10/22 00:19:45;;;;;;;2.00;1.83;;;10.10;99.90;;;;;;5028951;28;20260;-30
2023/10/22 00:22:12;;;;;;;2.73;2.20;;;10.10;99.90;;;;;;5028625;28;20208;-30
2023/10/22 00:24:38;;;;;;;1.90;1.80;;;10.10;99.90;;;;;;5022822;28;20198;-30
2023/10/22 00:27:04;;;;;;;2.30;2.10;;;10.10;99.90;;;;;;5029627;28;20187;-30
2023/10/22 00:29:30;;;;;;;3.67;2.30;;;10.20;99.90;;;;;;5002859;28;20632;-30
2023/10/22 00:31:56;;;;;;;2.63;2.43;;;10.20;99.90;;;;;;5009747;28;20279;-30
2023/10/22 00:34:22;;;;;;;2.80;2.10;;;10.10;99.90;;;;;;5011172;28;20190;-30
2023/10/22 00:36:48;;;;;;;2.50;1.70;;;10.10;99.90;;;;;;5013103;28;20187;-30
2023/10/22 00:39:14;;;;;;;3.20;2.10;;;10.00;99.90;;;;;;5004708;28;20180;-30
2023/10/22 00:41:39;;;;;;;2.87;1.63;;;10.00;99.90;;;;;;5024598;28;20205;-30
2023/10/22 00:44:06;;;;;;;2.57;1.60;;;10.00;99.90;;;;;;5009329;28;20179;-30
2023/10/22 00:46:32;;;;;;;2.77;1.83;;;10.00;99.90;;;;;;5005496;28;20175;-30
2023/10/22 00:48:58;;;;;;;1.70;1.60;;;10.00;99.90;;;;;;5012806;28;20255;-30
2023/10/22 00:51:24;;;;;;;2.93;1.67;;;10.00;99.90;;;;;;5015896;28;20190;-30
2023/10/22 00:53:51;;;;;;;3.13;1.70;;;9.90;99.90;;;;;;5016518;28;20198;-30
2023/10/22 00:56:20;;;;;;;3.17;1.73;;;9.80;99.90;;;;;;5009210;28;20228;-30
2023/10/22 00:58:46;;;;;;;3.83;1.80;;;9.70;99.90;;;;;;5027991;28;20185;-30
2023/10/22 01:01:14;;;;;;;4.20;1.90;;;9.70;99.90;;;;;;4995899;28;20250;-30
2023/10/22 01:03:40;;;;;;;2.33;1.80;;;9.70;99.90;;;;;;5009447;28;20186;-30
2023/10/22 01:06:06;;;;;;;2.47;1.53;;;9.70;99.90;;;;;;5014578;28;20287;-30
2023/10/22 01:08:36;;;;;;;2.43;1.53;;;9.70;99.90;;;;;;5016115;28;20186;-30
2023/10/22 01:11:07;;;;;;;2.13;1.50;;;9.70;99.90;;;;;;5032042;28;20179;-30
2023/10/22 01:13:34;;;;;;;3.03;1.63;;;9.80;99.90;;;;;;5004278;28;20251;-30
2023/10/22 01:16:01;;;;;;;2.30;1.57;;;9.80;99.90;;;;;;5015157;28;20294;-30
2023/10/22 01:18:27;;;;;;;1.70;1.40;;;9.80;99.90;;;;;;5032371;28;20185;-30
2023/10/22 01:20:53;;;;;;;3.27;1.53;;;9.90;99.90;;;;;;5016044;28;20185;-30
2023/10/22 01:23:19;;;;;;;2.30;1.63;;;9.90;99.90;;;;;;5032416;28;20178;-29
2023/10/22 01:25:45;;;;;;;2.20;1.40;;;9.90;99.90;;;;;;5015727;28;20227;-29
2023/10/22 01:28:11;;;;;;;4.07;1.87;;;9.90;99.90;;;;;;5032331;28;20204;-30
2023/10/22 01:30:36;;;;;;;1.50;1.40;;;9.80;99.90;;;;;;4996484;28;20216;-30
2023/10/22 01:33:03;;;;;;;2.07;1.70;;;9.80;99.90;;;;;;5012830;28;20218;-30
2023/10/22 01:35:29;;;;;;;2.70;1.90;;;9.80;99.90;;;;;;5023637;28;20202;-30
2023/10/22 01:37:55;;;;;;;4.07;1.97;;;9.80;99.90;;;;;;5015647;28;20193;-30
2023/10/22 01:40:21;;;;;;;2.33;2.10;;;9.70;99.90;;;;;;5005814;28;20198;-30
2023/10/22 01:42:47;;;;;;;2.67;2.30;;;9.60;99.90;;;;;;5015445;28;20216;-29
2023/10/22 01:45:13;;;;;;;2.77;2.40;;;9.60;99.90;;;;;;5015518;28;20203;-30
2023/10/22 01:47:39;;;;;;;2.37;2.10;;;9.50;99.90;;;;;;5015933;28;20188;-29
2023/10/22 01:50:06;;;;;;;5.10;2.00;;;9.50;99.90;;;;;;5032016;28;20185;-30
2023/10/22 01:52:32;;;;;;;3.00;1.70;;;9.40;99.90;;;;;;5015673;28;20183;-30
2023/10/22 01:54:58;;;;;;;2.77;1.83;;;9.30;99.90;;;;;;5015615;28;20202;-30
2023/10/22 01:57:24;;;;;;;2.40;1.80;;;9.20;99.90;;;;;;4992548;28;20234;-29
2023/10/22 01:59:50;;;;;;;3.90;1.80;;;9.20;99.90;;;;;;4994295;28;20187;-30
2023/10/22 02:02:17;;;;;;;1.70;1.60;;;9.10;99.90;;;;;;4996201;28;20246;-30
2023/10/22 02:04:43;;;;;;;3.27;2.10;;;9.10;99.90;;;;;;5015399;28;20191;-29
2023/10/22 02:07:09;;;;;;;2.27;1.50;;;9.20;99.90;;;;;;5015069;28;20310;-29
2023/10/22 02:09:35;;;;;;;4.07;1.60;;;9.10;99.90;;;;;;5015010;28;20177;-30
2023/10/22 02:12:01;;;;;;;2.93;1.40;;;9.10;99.90;;;;;;5024797;28;20187;-30
2023/10/22 02:14:27;;;;;;;1.73;1.30;;;9.20;99.90;;;;;;5021768;28;20282;-29
2023/10/22 02:16:53;;;;;;;2.03;1.30;;;9.30;99.90;;;;;;5014982;28;20188;-30
2023/10/22 02:19:20;;;;;;;1.60;1.50;;;9.30;99.90;;;;;;5030192;28;20186;-30
2023/10/22 02:21:46;;;;;;;1.70;1.40;;;9.30;99.90;;;;;;5007857;28;20210;-29
2023/10/22 02:24:12;;;;;;;3.30;1.80;;;9.30;99.90;;;;;;5014893;28;20187;-29
2023/10/22 02:26:39;;;;;;;3.00;2.07;;;9.20;99.90;;;;;;5031292;28;20183;-29
2023/10/22 02:29:08;;;;;;;5.47;3.30;;;9.10;99.90;;;;;;5007944;28;20183;-29
2023/10/22 02:31:34;;;;;;;4.33;2.30;;;8.90;99.90;;;;;;5011458;28;20183;-29
2023/10/22 02:34:05;;;;;;;3.47;2.00;;;8.80;99.90;;;;;;5011671;28;20199;-29
2023/10/22 02:36:32;;;;;;;2.40;2.20;;;8.70;99.90;;;;;;5013603;28;20182;-29
2023/10/22 02:38:57;;;;;;;4.43;2.10;;;8.70;99.90;;;;;;5030238;28;20194;-30
2023/10/22 02:41:23;;;;;;;2.90;2.17;;;8.70;99.90;;;;;;5013359;28;20220;-30
2023/10/22 02:43:50;;;;;;;4.60;2.37;;;8.70;99.90;;;;;;5013840;28;20232;-30
2023/10/22 02:46:16;;;;;;;3.97;2.20;;;8.70;99.90;;;;;;5022216;28;20224;-30
2023/10/22 02:48:41;;;;;;;2.53;2.20;;;8.70;99.90;;;;;;5028816;28;20186;-30
2023/10/22 02:51:07;;;;;;;3.13;2.40;;;8.70;99.90;;;;;;5014530;28;20206;-29
2023/10/22 02:53:33;;;;;;;3.20;2.40;;;8.70;99.90;;;;;;5005377;28;20204;-30
2023/10/22 02:56:03;;;;;;;3.60;2.37;;;8.70;99.90;;;;;;5024561;28;20238;-29
2023/10/22 02:58:30;;;;;;;2.80;2.27;;;8.70;99.90;;;;;;5011237;28;20182;-29
2023/10/22 03:01:05;;;;;;;2.60;2.40;;;8.60;99.90;;;;;;5010783;28;20270;-30
2023/10/22 03:03:38;;;;;;;2.30;2.10;;;8.60;99.90;;;;;;5021348;28;20213;-29
2023/10/22 03:06:05;;;;;;;2.60;2.40;;;8.60;99.90;;;;;;5030720;28;20213;-29
2023/10/22 03:08:32;;;;;;;3.67;2.67;;;8.60;99.90;;;;;;5030258;28;20178;-29
2023/10/22 03:10:58;;;;;;;6.10;2.77;;;8.60;99.90;;;;;;5014092;28;20273;-30
2023/10/22 03:13:24;;;;;;;2.70;2.13;;;8.60;99.90;;;;;;5029530;28;20278;-29
2023/10/22 03:15:49;;;;;;;3.27;2.40;;;8.60;99.90;;;;;;5014396;28;20214;-30
2023/10/22 03:18:15;;;;;;;2.27;1.90;;;8.60;99.90;;;;;;5013964;28;20228;-30
2023/10/22 03:20:42;;;;;;;4.60;2.33;;;8.60;99.90;;;;;;5012564;28;20174;-30
2023/10/22 03:23:08;;;;;;;3.40;2.20;;;8.60;99.90;;;;;;5030182;28;20210;-30
2023/10/22 03:25:34;;;;;;;2.97;2.27;;;8.60;99.90;;;;;;5030041;28;20213;-30
2023/10/22 03:28:00;;;;;;;2.20;2.00;;;8.50;99.90;;;;;;5029899;28;20186;-30
2023/10/22 03:30:26;;;;;;;3.67;2.07;;;8.50;99.90;;;;;;5000478;28;20191;-30
2023/10/22 03:32:55;;;;;;;1.90;1.80;;;8.50;99.90;;;;;;4998359;28;20186;-30
2023/10/22 03:35:22;;;;;;;3.53;2.10;;;8.50;99.90;;;;;;5013464;28;20232;-30
2023/10/22 03:37:48;;;;;;;2.13;1.90;;;8.50;99.90;;;;;;5005780;28;20273;-30
2023/10/22 03:40:14;;;;;;;2.07;1.90;;;8.40;99.90;;;;;;5014166;28;20294;-30
2023/10/22 03:42:41;;;;;;;3.93;2.23;;;8.40;99.90;;;;;;5013320;28;20237;-30
2023/10/22 03:45:08;;;;;;;2.47;2.23;;;8.40;99.90;;;;;;5013430;28;20253;-30
2023/10/22 03:47:35;;;;;;;4.20;2.40;;;8.30;99.90;;;;;;5013424;28;20181;-30
2023/10/22 03:50:01;;;;;;;4.03;2.30;;;8.20;99.90;;;;;;5012858;28;20178;-30
2023/10/22 03:52:27;;;;;;;4.20;2.60;;;8.20;99.90;;;;;;5012579;28;20183;-30
2023/10/22 03:54:52;;;;;;;2.73;2.47;;;8.10;99.90;;;;;;5006379;28;20210;-31
2023/10/22 03:57:18;;;;;;;2.80;2.47;;;8.20;99.90;;;;;;5021243;28;20218;-30
2023/10/22 03:59:44;;;;;;;3.00;2.50;;;8.10;99.90;;;;;;5001711;28;20195;-30
2023/10/22 04:02:10;;;;;;;2.57;2.37;;;8.10;99.90;;;;;;5016774;28;20232;-30
2023/10/22 04:04:36;;;;;;;2.93;2.40;;;8.10;99.90;;;;;;5030920;28;20203;-30
2023/10/22 04:07:02;;;;;;;4.03;2.80;;;8.10;99.90;;;;;;5013511;28;20289;-30
2023/10/22 04:09:29;;;;;;;5.40;3.13;;;8.00;99.90;;;;;;5012885;28;20335;-29
2023/10/22 04:11:56;;;;;;;2.53;2.33;;;7.90;99.90;;;;;;5013248;28;20289;-30
2023/10/22 04:14:22;;;;;;;5.77;2.47;;;7.80;99.90;;;;;;5013251;28;20321;-29
2023/10/22 04:16:50;;;;;;;3.27;2.57;;;7.70;99.90;;;;;;5012766;28;20269;-29
2023/10/22 04:19:16;;;;;;;4.07;3.10;;;7.70;99.90;;;;;;5011985;28;20193;-30
2023/10/22 04:21:41;;;;;;;4.30;3.37;;;7.70;99.90;;;;;;5029566;28;20203;-30
2023/10/22 04:24:08;;;;;;;4.43;2.70;;;7.70;99.90;;;;;;5030552;28;20195;-30
2023/10/22 04:26:34;;;;;;;3.30;2.93;;;7.70;99.90;;;;;;5017225;28;20186;-30
2023/10/22 04:29:00;;;;;;;4.73;2.63;;;7.80;99.90;;;;;;5010576;28;20183;-30
2023/10/22 04:31:26;;;;;;;3.00;2.33;;;7.80;99.90;;;;;;4997838;28;20191;-29
2023/10/22 04:33:54;;;;;;;3.00;2.70;;;7.80;99.90;;;;;;5033150;28;20206;-29
2023/10/22 04:36:22;;;;;;;3.03;2.40;;;7.90;99.90;;;;;;5017047;28;20208;-30
2023/10/22 04:38:48;;;;;;;2.70;2.20;;;7.80;99.90;;;;;;5008751;28;20179;-30
2023/10/22 04:41:14;;;;;;;2.47;2.27;;;7.60;99.90;;;;;;5033260;28;20196;-30
2023/10/22 04:43:41;;;;;;;4.87;2.50;;;7.50;99.90;;;;;;5016521;28;20228;-30
2023/10/22 04:46:06;;;;;;;4.20;2.50;;;7.50;99.90;;;;;;5032949;28;20214;-31
2023/10/22 04:48:32;;;;;;;2.40;2.20;;;7.60;99.90;;;;;;5014949;28;20190;-30
2023/10/22 04:51:04;;;;;;;3.87;2.67;;;7.60;99.90;;;;;;5033410;28;20187;-30
2023/10/22 04:53:29;;;;;;;3.47;3.13;;;7.60;99.90;;;;;;5032741;28;20190;-30
2023/10/22 04:55:56;;;;;;;3.83;2.80;;;7.50;99.90;;;;;;5031648;28;20214;-30
2023/10/22 04:58:22;;;;;;;2.60;2.40;;;7.50;99.90;;;;;;5032415;28;20223;-30
2023/10/22 05:00:49;;;;;;;3.00;2.50;;;7.40;99.90;;;;;;5014378;28;20175;-30
2023/10/22 05:03:15;;;;;;;4.30;2.47;;;7.30;99.90;;;;;;5011158;28;20306;-30
2023/10/22 05:05:41;;;;;;;2.50;2.30;;;7.40;99.90;;;;;;5015688;28;20293;-30
2023/10/22 05:08:09;;;;;;;3.83;2.60;;;7.40;99.90;;;;;;5016707;28;20269;-29
2023/10/22 05:10:39;;;;;;;2.40;2.03;;;7.40;99.90;;;;;;5004090;28;20187;-30
2023/10/22 05:13:05;;;;;;;3.90;2.43;;;7.30;99.90;;;;;;5018351;28;20194;-30
2023/10/22 05:15:31;;;;;;;2.93;2.30;;;7.20;99.90;;;;;;5031456;28;20225;-29
2023/10/22 05:17:57;;;;;;;2.70;2.50;;;7.20;99.90;;;;;;5032780;28;20190;-30
2023/10/22 05:20:33;;;;;;;3.83;2.50;;;7.20;99.90;;;;;;5015859;28;20241;-30
2023/10/22 05:22:59;;;;;;;2.40;2.20;;;7.20;99.90;;;;;;5032786;28;20213;-30
2023/10/22 05:25:25;;;;;;;4.67;2.33;;;7.30;99.90;;;;;;5016163;28;20238;-30
2023/10/22 05:27:51;;;;;;;2.03;1.87;;;7.30;99.90;;;;;;5032379;28;20214;-30
2023/10/22 05:30:17;;;;;;;2.40;2.17;;;7.30;99.90;;;;;;4999629;28;20705;-30
2023/10/22 05:32:43;;;;;;;2.97;2.30;;;7.30;99.90;;;;;;5006265;28;20186;-30
2023/10/22 05:35:08;;;;;;;3.00;2.20;;;7.30;99.90;;;;;;5018507;28;20211;-29
2023/10/22 05:37:34;;;;;;;3.77;2.50;;;7.20;99.90;;;;;;5029375;28;20269;-30
2023/10/22 05:40:00;;;;;;;3.30;2.10;;;7.20;99.90;;;;;;5015856;28;20193;-30
2023/10/22 05:42:26;;;;;;;6.93;2.30;;;7.10;99.90;;;;;;5015599;28;20298;-30
2023/10/22 05:44:52;;;;;;;5.67;2.47;;;7.10;99.90;;;;;;5032154;28;20302;-30
2023/10/22 05:47:18;;;;;;;2.80;2.20;;;7.10;99.90;;;;;;5015401;28;20225;-30
2023/10/22 05:49:44;;;;;;;2.80;2.60;;;7.10;99.90;;;;;;5015333;28;20213;-30
2023/10/22 05:52:10;;;;;;;7.07;2.90;;;7.10;99.90;;;;;;5015540;28;20201;-30
2023/10/22 05:54:36;;;;;;;3.77;3.37;;;7.20;99.90;;;;;;5007225;28;20209;-30
2023/10/22 05:57:02;;;;;;;3.73;3.03;;;7.10;99.90;;;;;;5012470;28;20198;-30
2023/10/22 05:59:28;;;;;;;4.03;2.57;;;7.10;99.90;;;;;;5022467;28;20183;-30
2023/10/22 06:01:54;;;;;;;2.47;2.27;;;7.10;99.90;;;;;;5031654;28;20210;-30
2023/10/22 06:04:20;;;;;;;3.17;2.50;;;7.10;99.90;;;;;;5014837;28;20182;-29
2023/10/22 06:06:46;;;;;;;3.60;3.30;;;7.10;99.90;;;;;;5030069;28;20190;-31
2023/10/22 06:09:13;;;;;;;5.87;3.27;;;7.00;99.90;;;;;;5031569;28;20198;-31
2023/10/22 06:11:39;;;;;;;3.00;2.47;;;7.00;99.90;;;;;;5031604;28;20186;-30
2023/10/22 06:14:06;;;;;;;3.03;2.53;;;6.80;99.90;;;;;;5015294;28;20189;-30
2023/10/22 06:16:32;;;;;;;2.93;2.73;;;6.90;99.90;;;;;;5031333;28;20284;-29
2023/10/22 06:18:58;;;;;;;4.53;3.57;;;6.90;99.90;;;;;;5027542;28;20214;-30
2023/10/22 06:21:24;;;;;;;5.13;4.20;;;6.90;99.90;;;;;;5018650;28;20203;-30
2023/10/22 06:23:50;;;;;;;5.57;4.77;;;6.90;99.90;;;;;;5031521;28;20713;-30
2023/10/22 06:26:17;;;;;;;4.00;3.60;;;7.00;99.90;;;;;;5031567;28;20199;-30
2023/10/22 06:28:43;;;;;;;6.17;3.83;;;7.00;99.90;;;;;;5011332;28;20179;-29
2023/10/22 06:31:11;;;;;;;4.53;4.00;;;7.00;99.90;;;;;;5011403;28;20221;-30
2023/10/22 06:33:38;;;;;;;5.93;4.57;;;7.00;99.90;;;;;;5011196;28;20194;-30
2023/10/22 06:36:22;;;;;;;5.00;4.07;;;7.10;99.90;;;;;;5031154;28;20198;-30
2023/10/22 06:38:49;;;;;;;4.57;4.17;;;7.20;99.90;;;;;;5014619;28;20257;-30
2023/10/22 06:41:25;;;;;;;5.27;3.83;;;7.20;99.90;;;;;;5014568;28;20174;-30
2023/10/22 06:43:51;;;;;;;5.73;4.00;;;7.30;99.90;;;;;;5014297;28;20277;-30
2023/10/22 06:46:18;;;;;;;4.33;3.43;;;7.50;99.90;;;;;;5014571;28;20301;-30
2023/10/22 06:48:44;;;;;;;4.30;3.30;;;7.60;99.90;;;;;;5012950;28;20186;-30
2023/10/22 06:51:11;;;;;;;3.50;3.00;;;7.80;99.90;;;;;;5013744;28;20194;-30
2023/10/22 06:53:38;;;;;;;3.47;3.00;;;7.90;99.90;;;;;;5013984;28;20261;-30
2023/10/22 06:56:07;;;;;;;2.77;2.50;;;8.10;99.90;;;;;;5004275;28;20206;-30
2023/10/22 06:58:33;;;;;;;2.83;2.50;;;8.20;99.90;;;;;;5012078;28;20246;-30
2023/10/22 07:01:10;;;;;;;3.77;2.70;;;8.30;99.90;;;;;;5010856;28;20211;-30
2023/10/22 07:03:37;;;;;;;4.00;2.50;;;8.30;99.90;;;;;;5011241;28;20217;-30
2023/10/22 07:06:03;;;;;;;4.43;2.40;;;8.50;99.90;;;;;;5014167;28;20198;-30
2023/10/22 07:08:30;;;;;;;3.60;2.07;;;8.50;99.90;;;;;;5014076;28;20183;-30
2023/10/22 07:10:56;;;;;;;4.37;2.73;;;8.60;99.90;;;;;;5030507;28;20265;-30
2023/10/22 07:13:25;;;;;;;5.07;2.60;;;8.70;99.90;;;;;;5014035;28;20214;-30
2023/10/22 07:15:52;;;;;;;2.67;1.70;;;8.80;99.90;;;;;;5029988;28;20218;-30
2023/10/22 07:18:19;;;;;;;4.60;2.43;;;8.80;99.90;;;;;;5014125;28;20186;-30
2023/10/22 07:20:45;;;;;;;5.13;2.10;;;8.90;99.90;;;;;;5013817;28;20643;-30
2023/10/22 07:23:11;;;;;;;4.43;1.70;;;9.00;99.90;;;;;;5030191;28;20206;-30
2023/10/22 07:25:37;;;;;;;5.07;2.07;;;9.20;99.90;;;;;;5030150;28;20194;-30
2023/10/22 07:28:03;;;;;;;3.30;1.80;;;9.20;99.90;;;;;;5014323;28;20181;-30
2023/10/22 07:30:31;;;;;;;3.20;1.90;;;9.40;99.90;;;;;;4996031;28;20203;-29
2023/10/22 07:32:58;;;;;;;2.43;1.80;;;9.60;99.90;;;;;;5018812;28;20628;-30
2023/10/22 07:35:24;;;;;;;5.43;1.53;;;9.70;99.90;;;;;;5011860;28;20203;-30
2023/10/22 07:37:50;;;;;;;3.60;1.80;;;9.80;99.90;;;;;;5019973;28;20217;-30
2023/10/22 07:40:17;;;;;;;2.90;1.67;;;9.90;99.90;;;;;;5005490;28;20183;-30
2023/10/22 07:42:44;;;;;;;3.20;2.07;;;10.00;99.90;;;;;;5013335;28;20210;-30
2023/10/22 07:45:11;;;;;;;4.47;1.97;;;10.10;99.90;;;;;;5013513;28;20427;-30
2023/10/22 07:47:37;;;;;;;4.40;1.97;;;10.20;99.90;;;;;;5013503;28;20179;-30
2023/10/22 07:50:07;;;;;;;3.30;1.80;;;10.30;99.90;;;;;;5029791;28;20181;-30
2023/10/22 07:52:36;;;;;;;3.67;1.20;;;10.40;99.90;;;;;;5013300;28;20212;-31
2023/10/22 07:55:04;;;;;;;5.13;1.77;;;10.60;99.90;;;;;;5005396;28;20198;-30
2023/10/22 07:57:29;;;;;;;3.80;1.60;;;10.70;99.90;;;;;;5009965;28;20217;-30
2023/10/22 07:59:56;;;;;;;2.77;1.40;;;10.80;99.90;;;;;;4999757;28;20225;-31
2023/10/22 08:02:23;;;;;;;2.47;1.00;;;11.00;99.90;;;;;;4992857;28;20209;-30
2023/10/22 08:04:49;;;;;;;3.43;1.30;;;11.10;99.90;;;;;;5027563;28;20232;-31
2023/10/22 08:07:18;;;;;;;3.50;1.30;;;11.30;99.90;;;;;;5013102;28;20225;-30
2023/10/22 08:09:45;;;;;;;3.60;1.30;;;11.40;99.90;;;;;;5029280;28;20184;-28
2023/10/22 08:12:11;;;;;;;4.03;1.40;;;11.60;99.90;;;;;;5012580;28;20192;-30
2023/10/22 08:14:37;;;;;;;3.40;1.40;;;11.70;99.90;;;;;;5013335;28;20215;-30
2023/10/22 08:17:03;;;;;;;2.10;1.10;;;11.80;99.90;;;;;;5028849;28;20194;-30
2023/10/22 08:19:29;;;;;;;2.43;1.00;;;11.90;99.90;;;;;;5029623;28;20281;-30
2023/10/22 08:21:55;;;;;;;3.80;1.43;;;12.10;99.90;;;;;;5012957;28;20308;-31
2023/10/22 08:24:21;;;;;;;2.97;1.50;;;12.20;99.90;;;;;;5013353;28;20269;-30
2023/10/22 08:26:47;;;;;;;4.93;1.30;;;12.30;99.90;;;;;;5004907;28;20264;-30
2023/10/22 08:29:13;;;;;;;3.23;1.33;;;12.40;99.90;;;;;;5005444;28;20301;-29
2023/10/22 08:31:39;;;;;;;4.10;1.53;;;12.60;99.90;;;;;;5009488;28;20291;-30
2023/10/22 08:34:05;;;;;;;3.87;1.23;;;12.70;99.90;;;;;;5029017;28;20189;-30
2023/10/22 08:36:31;;;;;;;2.53;1.03;;;12.90;99.90;;;;;;5029653;28;20193;-30
2023/10/22 08:38:56;;;;;;;2.27;0.90;;;13.00;99.90;;;;;;5003463;28;20198;-29
2023/10/22 08:41:25;;;;;;;5.07;1.20;;;13.10;99.90;;;;;;5028849;28;20193;-30
2023/10/22 08:43:51;;;;;;;1.93;0.90;;;13.20;99.90;;;;;;5028121;28;20179;-30
2023/10/22 08:46:17;;;;;;;2.80;1.10;;;13.30;99.90;;;;;;5006186;28;20194;-30
2023/10/22 08:48:44;;;;;;;2.47;0.97;;;13.40;99.90;;;;;;5012467;28;20627;-30
2023/10/22 08:51:10;;;;;;;2.70;1.10;;;13.50;99.90;;;;;;5030544;28;20182;-30
2023/10/22 08:53:37;;;;;;;4.00;1.00;;;13.60;99.90;;;;;;5023097;28;20198;-30
2023/10/22 08:56:03;;;;;;;4.23;1.00;;;13.70;99.90;;;;;;5015410;28;20264;-29
2023/10/22 08:58:30;;;;;;;3.70;1.13;;;13.80;99.90;;;;;;5022515;28;20185;-30
2023/10/22 09:00:56;;;;;;;3.53;1.03;;;13.80;99.90;;;;;;5009005;28;20180;-31
2023/10/22 09:03:25;;;;;;;3.37;0.90;;;13.80;99.90;;;;;;4998627;28;20233;-31
2023/10/22 09:05:53;;;;;;;3.57;1.33;;;13.90;99.90;;;;;;5012605;28;20284;-31
2023/10/22 09:08:19;;;;;;;2.37;0.70;;;14.00;99.90;;;;;;5013243;28;20275;-31
2023/10/22 09:10:45;;;;;;;4.77;1.20;;;14.10;99.90;;;;;;5029264;28;20182;-30
2023/10/22 09:13:22;;;;;;;2.53;1.00;;;14.10;99.90;;;;;;5016339;28;20194;-31
2023/10/22 09:15:49;;;;;;;5.63;1.00;;;14.20;99.90;;;;;;5016545;28;20221;-29
2023/10/22 09:18:17;;;;;;;4.73;1.20;;;14.30;99.90;;;;;;5007916;28;20174;-29
2023/10/22 09:20:44;;;;;;;6.10;1.43;;;14.30;99.90;;;;;;5009130;28;20188;-29
2023/10/22 09:23:23;;;;;;;3.23;1.37;;;14.40;99.90;;;;;;4999992;28;20198;-29
2023/10/22 09:25:55;;;;;;;4.87;1.30;;;14.40;99.90;;;;;;5015748;28;20230;-29
2023/10/22 09:28:24;;;;;;;2.63;0.90;;;14.40;99.90;;;;;;5015629;28;20193;-30
2023/10/22 09:30:56;;;;;;;3.20;1.00;;;14.40;99.90;;;;;;5010994;28;20249;-30
2023/10/22 09:33:36;;;;;;;3.50;0.90;;;14.40;99.90;;;;;;5017301;28;20178;-29
2023/10/22 09:36:07;;;;;;;4.13;1.00;;;14.50;99.90;;;;;;5016134;28;20217;-29
2023/10/22 09:39:04;;;;;;;5.73;1.33;;;14.40;99.90;;;;;;5015545;28;20640;-29
2023/10/22 09:41:30;;;;;;;4.30;1.23;;;14.50;99.90;;;;;;5011465;28;20218;-29
2023/10/22 09:43:57;;;;;;;5.20;1.13;;;14.50;99.90;;;;;;5015287;28;20228;-30
2023/10/22 09:46:33;;;;;;;3.70;1.23;;;14.60;99.90;;;;;;5015555;28;20217;-30
2023/10/22 09:49:01;;;;;;;3.50;1.00;;;14.70;99.90;;;;;;5032059;28;20235;-29
2023/10/22 09:51:31;;;;;;;3.63;1.10;;;14.80;99.90;;;;;;5007639;28;20178;-29
2023/10/22 09:54:05;;;;;;;2.23;0.90;;;14.80;99.90;;;;;;5015488;28;20175;-29
2023/10/22 09:56:32;;;;;;;3.53;1.10;;;14.80;99.90;;;;;;5026801;28;20211;-31
2023/10/22 09:59:07;;;;;;;2.57;1.00;;;14.90;99.90;;;;;;5023722;28;20212;-30
2023/10/22 10:01:37;;;;;;;1.83;0.97;;;15.00;99.90;;;;;;5012007;28;20213;-29
2023/10/22 10:04:05;;;;;;;3.77;0.97;;;15.20;99.90;;;;;;5030698;28;20194;-30
2023/10/22 10:06:33;;;;;;;4.03;0.90;;;15.10;99.90;;;;;;5023816;28;20183;-30
2023/10/22 10:09:03;;;;;;;1.87;0.90;;;15.20;99.90;;;;;;5030300;28;20190;-30
2023/10/22 10:11:30;;;;;;;2.50;0.97;;;15.30;99.90;;;;;;5025483;28;20171;-29
2023/10/22 10:13:56;;;;;;;3.40;1.00;;;15.20;99.90;;;;;;5015504;28;20175;-29
2023/10/22 10:16:25;;;;;;;2.70;1.00;;;15.20;99.90;;;;;;5014971;28;20326;-29
2023/10/22 10:19:04;;;;;;;3.00;0.90;;;15.20;99.90;;;;;;5030928;28;20182;-29
2023/10/22 10:21:38;;;;;;;4.40;1.00;;;15.30;99.90;;;;;;5017120;28;20175;-29
2023/10/22 10:24:24;;;;;;;3.30;1.07;;;15.20;99.90;;;;;;5015066;28;20193;-29
2023/10/22 10:26:52;;;;;;;3.23;1.07;;;15.00;99.90;;;;;;5031343;28;20178;-29
2023/10/22 10:29:23;;;;;;;1.83;0.80;;;15.00;99.90;;;;;;5024464;28;20176;-29
2023/10/22 10:31:51;;;;;;;4.33;1.00;;;15.10;99.90;;;;;;4995095;28;20314;-29
2023/10/22 10:34:36;;;;;;;2.97;0.97;;;15.30;99.90;;;;;;5014416;28;20183;-29
2023/10/22 10:37:21;;;;;;;2.70;0.97;;;15.60;99.90;;;;;;5031294;28;20186;-29
2023/10/22 10:39:49;;;;;;;1.57;0.90;;;15.60;99.90;;;;;;5031232;28;20193;-29
2023/10/22 10:42:36;;;;;;;3.47;0.87;;;15.60;99.90;;;;;;5030979;28;20731;-29
2023/10/22 10:45:08;;;;;;;3.63;1.20;;;15.60;99.90;;;;;;5004840;28;20200;-29
2023/10/22 10:47:39;;;;;;;2.93;1.03;;;15.50;99.90;;;;;;5031054;28;20186;-29
2023/10/22 10:50:07;;;;;;;4.27;1.10;;;15.40;99.90;;;;;;5014184;28;20237;-30
2023/10/22 10:52:41;;;;;;;4.17;1.10;;;15.40;99.90;;;;;;5014354;28;20190;-29
2023/10/22 10:55:10;;;;;;;3.70;1.10;;;15.30;99.90;;;;;;5013987;28;20236;-29
2023/10/22 10:57:37;;;;;;;5.10;1.43;;;15.10;99.90;;;;;;5022957;28;20182;-29
2023/10/22 11:00:09;;;;;;;3.17;1.27;;;15.00;99.90;;;;;;4999681;28;20202;-29
2023/10/22 11:02:46;;;;;;;3.17;0.90;;;15.00;99.90;;;;;;5016795;28;20230;-29
2023/10/22 11:05:14;;;;;;;5.93;1.30;;;15.00;99.90;;;;;;5013963;28;20230;-30
2023/10/22 11:07:42;;;;;;;4.50;1.90;;;15.20;99.90;;;;;;5029938;28;20202;-30
2023/10/22 11:10:10;;;;;;;4.63;1.80;;;15.40;99.90;;;;;;5013840;28;20186;-29
2023/10/22 11:12:38;;;;;;;3.27;1.07;;;15.60;99.90;;;;;;5030562;28;20202;-29
2023/10/22 11:15:04;;;;;;;4.20;1.20;;;15.80;99.90;;;;;;5013790;28;20280;-29
2023/10/22 11:17:30;;;;;;;4.80;1.20;;;16.00;99.90;;;;;;5030455;28;20209;-29
2023/10/22 11:19:57;;;;;;;3.27;1.23;;;16.00;99.90;;;;;;5021878;28;20210;-29
2023/10/22 11:22:23;;;;;;;2.92;0.95;;;16.00;99.90;;;;;;5022669;28;20257;-29
2023/10/22 11:24:51;;;;;;;3.20;1.10;;;16.20;99.90;;;;;;5013707;28;20206;-29
2023/10/22 11:27:18;;;;;;;3.37;0.87;;;16.20;99.90;;;;;;5013816;28;20217;-30
2023/10/22 11:29:47;;;;;;;2.77;0.80;;;16.20;99.90;;;;;;5001717;28;20190;-29
2023/10/22 11:32:21;;;;;;;3.78;1.17;;;16.20;99.90;;;;;;4996264;28;20180;-30
2023/10/22 11:34:56;;;;;;;4.28;1.30;;;16.20;99.90;;;;;;5030654;28;20210;-30
2023/10/22 11:37:30;;;;;;;6.45;1.23;;;16.40;99.90;;;;;;5013622;28;20182;-29
2023/10/22 11:39:57;;;;;;;3.63;1.23;;;16.60;99.90;;;;;;5029845;28;20186;-30
2023/10/22 11:42:32;;;;;;;3.42;1.10;;;16.60;99.90;;;;;;5013655;28;20281;-30
2023/10/22 11:44:58;;;;;;;3.30;1.07;;;16.60;99.90;;;;;;5030063;28;20244;-29
2023/10/22 11:47:33;;;;;;;2.72;1.17;;;16.60;99.90;;;;;;5001168;28;20183;-30
2023/10/22 11:50:00;;;;;;;3.85;1.20;;;16.70;99.90;;;;;;5026701;28;20450;-30
2023/10/22 11:52:51;;;;;;;4.40;1.30;;;16.80;99.90;;;;;;5031385;28;20246;-30
2023/10/22 11:55:18;;;;;;;3.40;0.80;;;16.90;99.90;;;;;;5030229;28;20212;-29
2023/10/22 11:57:46;;;;;;;4.07;1.02;;;17.00;99.90;;;;;;5010945;28;20198;-31
2023/10/22 12:00:12;;;;;;;2.03;1.00;;;17.10;99.90;;;;;;5021161;28;20277;-30
2023/10/22 12:02:39;;;;;;;4.03;1.13;;;17.10;99.90;;;;;;4999301;28;20293;-30
2023/10/22 12:05:05;;;;;;;3.30;0.80;;;17.20;99.90;;;;;;5003004;28;20199;-30
2023/10/22 12:07:31;;;;;;;3.58;0.95;;;17.20;99.90;;;;;;5028964;28;20186;-31
2023/10/22 12:09:57;;;;;;;2.47;0.90;;;17.20;99.90;;;;;;5029712;28;20209;-31
2023/10/22 12:12:24;;;;;;;4.20;1.00;;;17.40;99.90;;;;;;5028960;28;20210;-31
2023/10/22 12:14:52;;;;;;;2.47;1.00;;;17.40;99.90;;;;;;5013289;28;20293;-31
2023/10/22 12:17:18;;;;;;;4.72;1.25;;;17.30;99.90;;;;;;5029397;28;20190;-31
2023/10/22 12:19:44;;;;;;;2.40;1.10;;;17.30;99.90;;;;;;5030201;28;20204;-31
2023/10/22 12:22:10;;;;;;;2.45;1.00;;;17.40;99.90;;;;;;5029608;28;20289;-31
2023/10/22 12:24:36;;;;;;;4.05;0.77;;;17.40;99.90;;;;;;5012088;28;20197;-31
2023/10/22 12:27:02;;;;;;;4.32;1.00;;;17.40;99.90;;;;;;5012946;28;20197;-30
2023/10/22 12:29:27;;;;;;;2.50;0.80;;;17.50;99.90;;;;;;5019672;28;20176;-31
2023/10/22 12:31:53;;;;;;;3.78;1.13;;;17.70;99.90;;;;;;4993653;28;20241;-31
2023/10/22 12:34:20;;;;;;;5.07;1.08;;;17.80;99.90;;;;;;5028769;28;20191;-30
2023/10/22 12:36:45;;;;;;;1.38;0.77;;;17.80;99.90;;;;;;5012962;28;20178;-31
2023/10/22 12:39:11;;;;;;;3.83;1.08;;;18.00;99.90;;;;;;5029300;28;20670;-31
2023/10/22 12:41:37;;;;;;;2.53;0.98;;;18.00;99.90;;;;;;5004523;28;20265;-31
2023/10/22 12:44:04;;;;;;;2.67;1.10;;;18.20;99.90;;;;;;5028709;28;20213;-31
2023/10/22 12:46:30;;;;;;;3.90;0.90;;;18.20;99.90;;;;;;5014639;28;20199;-30
2023/10/22 12:48:56;;;;;;;2.75;0.98;;;18.30;99.90;;;;;;5016200;28;20183;-31
2023/10/22 12:51:22;;;;;;;3.17;1.10;;;18.20;99.90;;;;;;5017059;28;20210;-30
2023/10/22 12:53:52;;;;;;;4.10;1.20;;;18.30;99.90;;;;;;5033009;28;20170;-30
2023/10/22 12:56:18;;;;;;;3.83;1.13;;;18.20;99.90;;;;;;5031575;28;20210;-30